Time;durP1;ratioP1;P1;durP2;ratioP2;P2;SDS_P1;SDS_P2;PMS_P1;PMS_P2;Temp;Humidity;BMP_temperature;BMP_pressure;BME280_temperature;BME280_humidity;BME280_pressure;Samples;Min_cycle;Max_cycle;Signal;HPM_P1;HPM_P2
2021/04/13 00:01:13;;;;;;;5.43;3.65;;;3.90;72.70;;;;;;6222067;23;20308;-72
2021/04/13 00:03:42;;;;;;;7.85;3.50;;;4.40;73.00;;;;;;6196879;23;20221;-72
2021/04/13 00:06:08;;;;;;;5.97;3.80;;;4.30;72.30;;;;;;6174961;23;20055;-72
2021/04/13 00:08:34;;;;;;;5.88;3.60;;;4.10;72.40;;;;;;6176596;23;20013;-72
2021/04/13 00:11:02;;;;;;;5.85;3.38;;;4.50;72.30;;;;;;6180115;23;20009;-72
2021/04/13 00:13:28;;;;;;;5.43;3.25;;;4.60;71.90;;;;;;6196335;23;20020;-72
2021/04/13 00:15:55;;;;;;;4.63;3.38;;;4.30;70.50;;;;;;6197775;23;20051;-72
2021/04/13 00:18:26;;;;;;;4.55;3.30;;;4.50;72.00;;;;;;6175126;23;20072;-73
2021/04/13 00:21:04;;;;;;;4.78;3.28;;;4.60;70.70;;;;;;6202260;23;20009;-72
2021/04/13 00:23:30;;;;;;;5.40;3.45;;;4.60;70.70;;;;;;6178022;23;20326;-72
2021/04/13 00:26:05;;;;;;;3.80;2.92;;;4.70;71.80;;;;;;6181543;23;20000;-71
2021/04/13 00:28:34;;;;;;;7.70;3.45;;;4.90;71.10;;;;;;6170849;23;20079;-72
2021/04/13 00:31:02;;;;;;;3.80;3.20;;;4.70;71.60;;;;;;6169176;23;20330;-72
2021/04/13 00:33:33;;;;;;;4.15;3.38;;;4.60;71.00;;;;;;6145198;23;20025;-72
2021/04/13 00:36:13;;;;;;;5.95;3.30;;;4.00;72.10;;;;;;6152492;23;20207;-72
2021/04/13 00:38:38;;;;;;;6.85;3.60;;;3.90;73.40;;;;;;6156793;23;20016;-72
2021/04/13 00:41:22;;;;;;;4.97;3.20;;;3.70;73.40;;;;;;6206980;23;20072;-72
2021/04/13 00:43:52;;;;;;;6.80;3.90;;;3.60;74.20;;;;;;6219454;23;20017;-72
2021/04/13 00:46:23;;;;;;;6.32;3.63;;;3.60;74.40;;;;;;6146378;23;20008;-72
2021/04/13 00:48:49;;;;;;;5.75;3.58;;;3.60;74.40;;;;;;6174076;23;20004;-72
2021/04/13 00:51:33;;;;;;;6.45;3.40;;;3.40;74.70;;;;;;6175644;23;20184;-72
2021/04/13 00:54:01;;;;;;;6.63;3.47;;;3.40;75.10;;;;;;6169485;23;20016;-72
2021/04/13 00:56:26;;;;;;;5.80;3.70;;;4.00;75.00;;;;;;6144906;23;20280;-72
2021/04/13 00:59:22;;;;;;;5.95;3.70;;;4.20;73.80;;;;;;6181664;23;20004;-72
2021/04/13 01:02:02;;;;;;;5.47;3.85;;;4.40;73.80;;;;;;6197695;23;20012;-72
2021/04/13 01:04:38;;;;;;;5.07;3.63;;;3.80;72.90;;;;;;6197006;23;20013;-72
2021/04/13 01:07:17;;;;;;;6.35;3.50;;;4.30;74.60;;;;;;6197069;23;20016;-72
2021/04/13 01:09:50;;;;;;;5.50;3.90;;;4.40;73.70;;;;;;6199840;23;20066;-72
2021/04/13 01:12:20;;;;;;;4.85;3.60;;;4.30;72.10;;;;;;6175652;23;20017;-72
2021/04/13 01:14:46;;;;;;;7.10;4.07;;;4.20;72.40;;;;;;6145192;23;20019;-72
2021/04/13 01:17:11;;;;;;;5.47;4.30;;;3.90;73.70;;;;;;6180922;23;20320;-72
2021/04/13 01:19:49;;;;;;;5.03;3.70;;;3.80;73.80;;;;;;6168984;23;20013;-72
2021/04/13 01:22:36;;;;;;;6.40;4.20;;;3.90;74.60;;;;;;6195943;23;20012;-72
2021/04/13 01:25:06;;;;;;;5.78;4.53;;;3.80;73.60;;;;;;6174701;23;20000;-72
2021/04/13 01:27:32;;;;;;;5.00;3.73;;;4.30;74.70;;;;;;6145674;23;20016;-72
2021/04/13 01:30:00;;;;;;;6.00;4.03;;;4.50;73.40;;;;;;6201254;23;20066;-72
2021/04/13 01:32:26;;;;;;;5.65;3.80;;;4.70;72.40;;;;;;6179228;23;20016;-72
2021/04/13 01:35:08;;;;;;;6.00;4.20;;;4.90;71.80;;;;;;6206450;23;20252;-72
2021/04/13 01:40:44;;;;;;;4.97;3.83;;;3.70;74.20;;;;;;6170927;23;20083;-72
2021/04/13 01:43:09;;;;;;;6.75;4.00;;;4.00;75.30;;;;;;6197707;23;20032;-72
2021/04/13 01:45:35;;;;;;;5.38;4.03;;;3.70;74.70;;;;;;6198069;23;20055;-72
2021/04/13 01:48:01;;;;;;;4.45;3.78;;;3.50;75.10;;;;;;6174930;23;20068;-72
2021/04/13 01:50:35;;;;;;;4.78;3.92;;;3.90;75.00;;;;;;6203124;23;20015;-72
2021/04/13 01:53:03;;;;;;;6.88;4.40;;;4.50;74.10;;;;;;6156944;23;20067;-72
2021/04/13 01:55:30;;;;;;;6.03;3.95;;;3.90;74.40;;;;;;6194050;23;20005;-72
2021/04/13 01:58:12;;;;;;;6.18;4.53;;;3.60;74.20;;;;;;6147591;23;20013;-72
2021/04/13 02:00:48;;;;;;;5.82;4.05;;;3.90;74.20;;;;;;6197893;23;20020;-72
2021/04/13 02:03:29;;;;;;;6.05;4.30;;;3.40;74.90;;;;;;6176113;23;20012;-72
2021/04/13 02:05:58;;;;;;;;;;;3.40;75.60;;;;;;6177946;23;20013;-71
2021/04/13 02:08:29;;;;;;;6.30;4.05;;;3.30;76.00;;;;;;6218531;23;19931;-72
2021/04/13 02:11:07;;;;;;;6.03;4.05;;;3.40;76.00;;;;;;6182039;23;20008;-72
2021/04/13 02:13:40;;;;;;;6.50;4.50;;;4.10;75.30;;;;;;6169700;23;20012;-72
2021/04/13 02:16:32;;;;;;;6.28;4.50;;;3.40;74.70;;;;;;6195820;23;20016;-72
2021/04/13 02:18:59;;;;;;;6.43;4.40;;;3.80;75.30;;;;;;6196412;23;20052;-72
2021/04/13 02:21:30;;;;;;;6.60;4.70;;;3.70;75.20;;;;;;6174083;23;20017;-72
2021/04/13 02:23:58;;;;;;;5.88;4.50;;;3.50;75.60;;;;;;6144417;23;20032;-72
2021/04/13 02:26:24;;;;;;;7.15;4.50;;;3.40;76.00;;;;;;6178472;23;20328;-72
2021/04/13 02:28:50;;;;;;;6.65;3.97;;;3.80;76.80;;;;;;6205802;23;20318;-72
2021/04/13 02:31:36;;;;;;;6.32;4.63;;;4.00;74.90;;;;;;6169728;23;20031;-72
2021/04/13 02:34:10;;;;;;;6.65;4.43;;;4.20;73.70;;;;;;6175547;23;20047;-72
2021/04/13 02:36:36;;;;;;;9.85;5.22;;;3.60;74.50;;;;;;6174965;23;20099;-72
2021/04/13 02:39:02;;;;;;;5.40;4.18;;;3.80;74.40;;;;;;6174148;23;20025;-72
2021/04/13 02:41:32;;;;;;;5.53;4.20;;;4.20;74.80;;;;;;6153410;23;20012;-72
2021/04/13 02:44:03;;;;;;;5.15;4.03;;;4.50;73.50;;;;;;6156533;23;20016;-72
2021/04/13 02:46:30;;;;;;;6.13;4.22;;;4.40;72.50;;;;;;6145440;23;20307;-72
2021/04/13 02:49:22;;;;;;;7.82;5.32;;;4.20;73.70;;;;;;6147598;23;20043;-72
2021/04/13 02:51:52;;;;;;;7.22;4.80;;;3.80;74.20;;;;;;6189588;23;20300;-72
2021/04/13 02:54:45;;;;;;;6.47;4.55;;;3.70;74.40;;;;;;6199425;23;20016;-72
2021/04/13 02:57:14;;;;;;;5.38;4.30;;;3.90;76.20;;;;;;6157251;23;20071;-72
2021/04/13 02:59:40;;;;;;;6.40;4.97;;;4.00;75.80;;;;;;6177445;23;20016;-72
2021/04/13 03:02:17;;;;;;;6.30;4.95;;;4.40;74.10;;;;;;6180734;23;20087;-72
2021/04/13 03:04:50;;;;;;;6.75;4.43;;;4.00;73.80;;;;;;6168457;23;20036;-72
2021/04/13 03:07:22;;;;;;;6.13;4.30;;;4.40;73.90;;;;;;6170955;23;20063;-72
2021/04/13 03:09:49;;;;;;;8.40;4.70;;;4.60;73.70;;;;;;6172581;23;20330;-72
2021/04/13 03:12:14;;;;;;;7.38;4.40;;;4.50;72.20;;;;;;6198841;23;20011;-72
2021/04/13 03:14:46;;;;;;;9.05;4.55;;;4.70;72.70;;;;;;6177042;23;20068;-72
2021/04/13 03:17:13;;;;;;;6.63;4.55;;;4.40;71.90;;;;;;6122354;23;20072;-71
2021/04/13 03:19:39;;;;;;;8.40;4.38;;;4.10;73.00;;;;;;6168814;23;20216;-72
2021/04/13 03:22:05;;;;;;;6.60;4.20;;;4.20;73.60;;;;;;6171595;23;20008;-71
2021/04/13 03:24:33;;;;;;;6.28;4.38;;;4.30;73.20;;;;;;6175347;23;20020;-72
2021/04/13 03:27:04;;;;;;;7.88;4.50;;;4.40;73.70;;;;;;6178095;23;20173;-72
2021/04/13 03:29:40;;;;;;;7.28;4.53;;;4.30;73.60;;;;;;6144562;23;20032;-71
2021/04/13 03:32:06;;;;;;;6.30;4.13;;;4.30;72.70;;;;;;6183963;23;19997;-72
2021/04/13 03:34:32;;;;;;;5.93;4.00;;;4.50;72.70;;;;;;6170917;23;20304;-72
2021/04/13 03:36:57;;;;;;;7.13;4.95;;;4.60;72.60;;;;;;6194696;23;20012;-72
2021/04/13 03:39:31;;;;;;;5.40;4.22;;;4.40;71.20;;;;;;6175664;23;20216;-72
2021/04/13 03:41:57;;;;;;;5.18;4.00;;;4.40;72.90;;;;;;6176906;23;20032;-72
2021/04/13 03:44:23;;;;;;;5.30;4.25;;;4.70;72.20;;;;;;6179466;23;20010;-72
2021/04/13 03:46:48;;;;;;;7.22;4.68;;;4.80;71.80;;;;;;6182453;23;20220;-72
2021/04/13 03:49:27;;;;;;;6.80;4.68;;;4.40;71.00;;;;;;6171918;23;20004;-72
2021/04/13 03:52:15;;;;;;;7.20;4.85;;;4.20;73.60;;;;;;6199129;23;20008;-72
2021/04/13 03:54:40;;;;;;;7.38;4.93;;;3.80;73.60;;;;;;6149204;23;20354;-72
2021/04/13 03:57:06;;;;;;;6.78;4.90;;;4.20;74.80;;;;;;6228049;23;20011;-72
2021/04/13 03:59:34;;;;;;;6.70;4.75;;;4.40;73.20;;;;;;6178904;23;20032;-72
2021/04/13 04:02:00;;;;;;;6.68;4.78;;;4.60;72.60;;;;;;6182495;23;20001;-72
2021/04/13 04:04:31;;;;;;;8.32;4.90;;;4.40;72.90;;;;;;6195821;23;20009;-72
2021/04/13 04:09:29;;;;;;;7.55;5.40;;;3.60;74.30;;;;;;6168893;23;20013;-72
2021/04/13 04:11:55;;;;;;;8.70;5.60;;;3.80;74.80;;;;;;6201862;23;20402;-72
2021/04/13 04:14:22;;;;;;;8.13;5.70;;;4.20;74.80;;;;;;6179719;23;20230;-72
2021/04/13 04:16:47;;;;;;;7.03;5.45;;;4.30;73.50;;;;;;6181813;23;20056;-72
2021/04/13 04:19:19;;;;;;;7.80;5.53;;;4.40;73.40;;;;;;6169414;23;20017;-72
2021/04/13 04:22:00;;;;;;;9.60;5.88;;;4.50;72.30;;;;;;6149419;23;20061;-72
2021/04/13 04:24:36;;;;;;;8.77;6.28;;;4.20;73.40;;;;;;6199854;23;20059;-72
2021/04/13 04:27:16;;;;;;;10.02;6.10;;;3.90;73.20;;;;;;6201631;23;20008;-72
2021/04/13 04:30:07;;;;;;;14.90;6.63;;;3.90;74.00;;;;;;6219355;23;20068;-72
2021/04/13 04:32:33;;;;;;;8.77;6.10;;;4.10;73.70;;;;;;6207453;23;20015;-72
2021/04/13 04:35:05;;;;;;;11.73;6.65;;;4.40;73.50;;;;;;6206121;23;20284;-72
2021/04/13 04:37:31;;;;;;;10.13;5.97;;;4.40;72.80;;;;;;6195318;23;20295;-72
2021/04/13 04:40:26;;;;;;;8.35;6.45;;;4.20;73.90;;;;;;6223863;23;20008;-72
2021/04/13 04:42:56;;;;;;;10.30;6.80;;;4.50;73.70;;;;;;6197153;23;20348;-72
2021/04/13 04:45:33;;;;;;;12.68;7.20;;;4.20;73.40;;;;;;6199965;23;20028;-72
2021/04/13 04:47:59;;;;;;;9.55;6.43;;;4.40;74.00;;;;;;6200424;23;19997;-72
2021/04/13 04:50:25;;;;;;;9.52;6.93;;;4.40;73.60;;;;;;6178948;23;20070;-72
2021/04/13 04:52:50;;;;;;;8.95;6.50;;;4.40;73.10;;;;;;6206130;23;20008;-72
2021/04/13 04:55:16;;;;;;;9.88;7.25;;;4.30;73.90;;;;;;6196108;23;20024;-72
2021/04/13 04:57:42;;;;;;;9.70;6.45;;;4.20;73.20;;;;;;6198420;23;20016;-71
2021/04/13 05:00:08;;;;;;;11.07;6.97;;;4.50;74.00;;;;;;6175708;23;20047;-72
2021/04/13 05:02:34;;;;;;;10.48;7.20;;;4.80;73.20;;;;;;6203276;23;20000;-72
2021/04/13 05:05:00;;;;;;;10.48;7.45;;;4.10;72.30;;;;;;6206521;23;20012;-71
2021/04/13 05:07:26;;;;;;;12.77;7.95;;;3.90;73.30;;;;;;6170595;23;20282;-71
2021/04/13 05:09:52;;;;;;;13.80;7.85;;;4.40;74.50;;;;;;6193731;23;20012;-74
2021/04/13 05:12:17;;;;;;;11.77;7.43;;;4.60;73.20;;;;;;6168867;23;20208;-73
2021/04/13 05:14:43;;;;;;;14.75;8.15;;;4.70;72.90;;;;;;6202316;23;20008;-71
2021/04/13 05:17:08;;;;;;;17.98;7.63;;;4.20;73.10;;;;;;6192905;23;20064;-73
2021/04/13 05:19:34;;;;;;;12.30;7.18;;;4.00;73.80;;;;;;6160824;23;20010;-72
2021/04/13 05:21:59;;;;;;;11.02;7.85;;;3.90;75.40;;;;;;6163464;23;20006;-72
2021/04/13 05:24:25;;;;;;;13.00;8.00;;;4.10;75.40;;;;;;6133244;23;20013;-72
2021/04/13 05:26:50;;;;;;;12.50;7.72;;;4.20;75.00;;;;;;6166326;23;20006;-72
2021/04/13 05:29:16;;;;;;;8.98;6.90;;;4.40;74.90;;;;;;6112012;23;20323;-72
2021/04/13 05:31:42;;;;;;;9.43;7.13;;;4.60;73.80;;;;;;6159396;23;20045;-71
2021/04/13 05:34:09;;;;;;;15.18;7.97;;;4.30;73.50;;;;;;6161173;23;20020;-69
2021/04/13 05:36:36;;;;;;;12.13;8.18;;;4.10;73.80;;;;;;6163606;23;20193;-69
2021/04/13 05:39:02;;;;;;;15.07;8.63;;;3.90;74.60;;;;;;6165480;23;20009;-69
2021/04/13 05:41:27;;;;;;;13.18;7.95;;;3.90;75.40;;;;;;6169563;23;20009;-71
2021/04/13 05:43:53;;;;;;;16.05;8.23;;;3.80;75.20;;;;;;6171118;23;20005;-69
2021/04/13 05:46:22;;;;;;;11.20;7.60;;;3.90;75.70;;;;;;6161437;23;20010;-70
2021/04/13 05:48:48;;;;;;;12.05;7.78;;;3.90;76.10;;;;;;6162748;23;20013;-69
2021/04/13 05:51:13;;;;;;;13.20;8.50;;;4.10;75.90;;;;;;6164965;23;20029;-70
2021/04/13 05:53:39;;;;;;;12.60;7.85;;;4.10;75.80;;;;;;6167534;23;20197;-70
2021/04/13 05:56:05;;;;;;;13.52;8.20;;;4.30;74.70;;;;;;6171057;23;20044;-69
2021/04/13 05:58:35;;;;;;;13.52;8.43;;;4.50;74.60;;;;;;6134582;23;20064;-69
2021/04/13 06:01:05;;;;;;;14.70;9.38;;;4.40;74.30;;;;;;6162789;23;20265;-70
2021/04/13 06:03:31;;;;;;;12.15;8.35;;;4.20;73.70;;;;;;6163245;23;20496;-70
2021/04/13 06:05:57;;;;;;;12.65;9.13;;;4.50;74.50;;;;;;6165781;23;20005;-70
2021/04/13 06:08:23;;;;;;;13.77;9.35;;;4.90;73.20;;;;;;6168419;23;20248;-70
2021/04/13 06:10:49;;;;;;;11.23;8.20;;;4.60;72.30;;;;;;6170493;23;20219;-70
2021/04/13 06:13:14;;;;;;;13.70;9.27;;;4.40;74.40;;;;;;6159866;23;20177;-70
2021/04/13 06:15:40;;;;;;;14.93;9.00;;;4.40;74.20;;;;;;6162802;23;20016;-70
2021/04/13 06:18:05;;;;;;;14.88;10.02;;;4.70;74.10;;;;;;6184695;23;20021;-70
2021/04/13 06:20:32;;;;;;;17.30;10.07;;;4.60;72.80;;;;;;6172445;23;20048;-70
2021/04/13 06:22:58;;;;;;;14.65;10.30;;;4.50;74.40;;;;;;6175614;23;20017;-70
2021/04/13 06:25:26;;;;;;;17.58;10.80;;;4.40;74.70;;;;;;6189640;23;20455;-70
2021/04/13 06:27:52;;;;;;;16.10;11.05;;;4.60;74.70;;;;;;6138853;23;20227;-70
2021/04/13 06:30:19;;;;;;;17.77;12.20;;;4.90;73.70;;;;;;6194282;23;20020;-70
2021/04/13 06:32:45;;;;;;;17.58;11.63;;;4.90;73.20;;;;;;6195920;23;20334;-70
2021/04/13 06:35:11;;;;;;;20.02;12.63;;;5.00;73.80;;;;;;6150808;23;20084;-70
2021/04/13 06:37:38;;;;;;;18.98;12.63;;;4.90;72.50;;;;;;6163915;23;20017;-70
2021/04/13 06:40:05;;;;;;;19.00;13.52;;;4.90;73.50;;;;;;6166647;23;20320;-70
2021/04/13 06:42:52;;;;;;;21.67;13.63;;;5.10;73.60;;;;;;6163333;23;20215;-70
2021/04/13 06:45:56;;;;;;;20.25;13.50;;;5.30;72.60;;;;;;6195234;23;20013;-70
2021/04/13 06:48:47;;;;;;;21.70;15.23;;;5.40;72.50;;;;;;6187966;23;20064;-69
2021/04/13 06:51:30;;;;;;;18.98;13.93;;;5.20;73.20;;;;;;6155355;23;20005;-70
2021/04/13 06:54:14;;;;;;;22.08;14.23;;;5.30;72.50;;;;;;6174434;23;20039;-70
2021/04/13 06:56:46;;;;;;;26.95;16.00;;;5.10;72.40;;;;;;6171382;23;20068;-70
2021/04/13 06:59:28;;;;;;;22.73;14.60;;;5.30;73.10;;;;;;6177793;23;20009;-69
2021/04/13 07:01:58;;;;;;;24.42;15.27;;;5.50;72.50;;;;;;6191056;23;20013;-70
2021/04/13 07:04:31;;;;;;;22.52;15.23;;;5.60;71.70;;;;;;6167932;23;20072;-70
2021/04/13 07:07:07;;;;;;;26.63;15.82;;;5.50;71.10;;;;;;6170011;23;20017;-70
2021/04/13 07:09:43;;;;;;;22.08;15.85;;;5.60;72.50;;;;;;6170907;23;20013;-70
2021/04/13 07:12:17;;;;;;;22.10;15.57;;;5.60;72.30;;;;;;6172714;23;20219;-70
2021/04/13 07:15:06;;;;;;;25.02;16.60;;;5.70;72.20;;;;;;6174086;23;20016;-70
2021/04/13 07:17:38;;;;;;;24.38;16.60;;;5.60;72.00;;;;;;6148181;23;20065;-70
2021/04/13 07:20:13;;;;;;;27.40;18.23;;;5.60;72.70;;;;;;6203255;23;20028;-70
2021/04/13 07:22:57;;;;;;;25.35;17.48;;;5.90;72.00;;;;;;6189699;23;20081;-70
2021/04/13 07:25:28;;;;;;;27.23;18.20;;;5.90;71.70;;;;;;6191392;23;20020;-70
2021/04/13 07:27:57;;;;;;;27.48;18.05;;;5.70;71.60;;;;;;6166518;23;20116;-70
2021/04/13 07:30:29;;;;;;;27.08;18.45;;;5.90;72.20;;;;;;6195034;23;20072;-70
2021/04/13 07:32:56;;;;;;;28.92;19.00;;;5.60;72.00;;;;;;6140642;23;20196;-70
2021/04/13 07:35:22;;;;;;;31.27;18.80;;;5.60;72.90;;;;;;6199206;23;20304;-70
2021/04/13 07:37:50;;;;;;;26.80;18.20;;;5.70;72.60;;;;;;6200455;23;20008;-71
2021/04/13 07:40:35;;;;;;;25.85;18.38;;;5.80;72.10;;;;;;6165762;23;20025;-70
2021/04/13 07:43:15;;;;;;;31.10;18.98;;;5.90;72.10;;;;;;6114209;23;20024;-70
2021/04/13 07:46:05;;;;;;;25.90;17.85;;;5.90;71.90;;;;;;6170222;23;20036;-70
2021/04/13 07:48:50;;;;;;;30.47;18.60;;;6.00;71.90;;;;;;6193545;23;20037;-71
2021/04/13 07:51:26;;;;;;;29.25;18.80;;;5.90;72.20;;;;;;6198916;23;20019;-70
2021/04/13 07:54:07;;;;;;;29.83;19.10;;;6.10;71.80;;;;;;6174517;23;20047;-70
2021/04/13 07:56:45;;;;;;;29.17;18.38;;;6.10;71.70;;;;;;6174023;23;20199;-71
2021/04/13 07:59:25;;;;;;;28.33;18.33;;;6.10;71.50;;;;;;6203168;23;20035;-71
2021/04/13 08:01:50;;;;;;;25.55;17.77;;;5.90;71.60;;;;;;6192145;23;20013;-70
2021/04/13 08:04:36;;;;;;;28.70;18.40;;;5.80;72.20;;;;;;6192034;23;20197;-70
2021/04/13 08:07:14;;;;;;;31.38;18.98;;;6.00;72.30;;;;;;6100099;23;20299;-70
2021/04/13 08:09:40;;;;;;;30.13;19.85;;;5.90;71.80;;;;;;6203027;23;20342;-70
2021/04/13 08:12:25;;;;;;;31.17;19.80;;;6.00;72.30;;;;;;6196463;23;20049;-70
2021/04/13 08:14:54;;;;;;;31.02;20.35;;;6.20;71.90;;;;;;6198798;23;20013;-70
2021/04/13 08:17:26;;;;;;;29.98;20.08;;;6.30;71.70;;;;;;6194694;23;20008;-71
2021/04/13 08:20:08;;;;;;;29.02;19.77;;;6.30;71.30;;;;;;6202019;23;20012;-71
2021/04/13 08:22:52;;;;;;;24.50;17.80;;;6.40;71.30;;;;;;6191639;23;20016;-70
2021/04/13 08:25:48;;;;;;;28.10;18.70;;;6.30;69.90;;;;;;6191417;23;20009;-71
2021/04/13 08:28:35;;;;;;;23.52;16.70;;;6.50;70.70;;;;;;6190776;23;20013;-70
2021/04/13 08:34:22;;;;;;;22.75;16.48;;;6.70;68.50;;;;;;6193866;23;20009;-71
2021/04/13 08:36:53;;;;;;;27.77;18.02;;;6.70;66.50;;;;;;6193164;23;20061;-71
2021/04/13 08:39:29;;;;;;;25.40;17.75;;;7.10;68.30;;;;;;6140762;23;20080;-71
2021/04/13 08:42:09;;;;;;;25.27;16.88;;;7.10;67.20;;;;;;6196817;23;20064;-70
2021/04/13 08:44:44;;;;;;;26.60;17.45;;;6.90;65.90;;;;;;6198335;23;20009;-71
2021/04/13 08:47:23;;;;;;;26.35;17.83;;;7.20;65.80;;;;;;6177449;23;20245;-70
2021/04/13 08:49:53;;;;;;;25.60;17.30;;;7.50;66.60;;;;;;6166244;23;20286;-71
2021/04/13 08:52:35;;;;;;;26.98;17.55;;;7.00;66.20;;;;;;6190756;23;20028;-70
2021/04/13 08:55:11;;;;;;;28.77;17.17;;;7.10;67.40;;;;;;6193435;23;20024;-70
2021/04/13 08:57:40;;;;;;;25.05;17.77;;;6.80;67.20;;;;;;6169939;23;20068;-70
2021/04/13 09:00:30;;;;;;;24.23;17.95;;;6.50;67.60;;;;;;6165101;23;20025;-70
2021/04/13 09:02:58;;;;;;;22.80;16.97;;;6.40;67.90;;;;;;6196456;23;20028;-71
2021/04/13 09:05:26;;;;;;;29.00;17.48;;;6.20;68.20;;;;;;6199084;23;20033;-71
2021/04/13 09:07:56;;;;;;;24.90;17.52;;;6.30;68.40;;;;;;6201570;23;20001;-70
2021/04/13 09:10:29;;;;;;;23.33;16.88;;;6.50;69.40;;;;;;6188901;23;20124;-70
2021/04/13 09:13:13;;;;;;;20.73;15.98;;;6.60;69.70;;;;;;6192383;23;20198;-70
2021/04/13 09:16:06;;;;;;;21.98;16.63;;;6.60;68.30;;;;;;6193604;23;20265;-70
2021/04/13 09:18:46;;;;;;;22.83;16.45;;;7.00;68.80;;;;;;6214823;23;20143;-70
2021/04/13 09:21:25;;;;;;;23.27;15.75;;;7.20;67.20;;;;;;6200412;23;20077;-70
2021/04/13 09:24:12;;;;;;;22.98;16.05;;;7.30;66.80;;;;;;6201648;23;20015;-68
2021/04/13 09:26:43;;;;;;;21.08;15.00;;;7.00;66.70;;;;;;6229184;23;20379;-70
2021/04/13 09:29:34;;;;;;;20.70;15.30;;;7.30;66.70;;;;;;6206092;23;20012;-70
2021/04/13 09:32:00;;;;;;;20.23;13.68;;;7.20;66.30;;;;;;6194472;23;20095;-70
2021/04/13 09:34:31;;;;;;;17.08;12.02;;;6.80;64.50;;;;;;6195064;23;20023;-70
2021/04/13 09:37:24;;;;;;;15.88;12.20;;;6.70;64.80;;;;;;6223255;23;20016;-70
2021/04/13 09:40:19;;;;;;;15.05;11.43;;;6.90;66.80;;;;;;6222666;23;20071;-70
2021/04/13 09:43:13;;;;;;;15.93;11.68;;;6.90;65.70;;;;;;6197381;23;20013;-70
2021/04/13 09:46:00;;;;;;;15.10;12.05;;;6.90;65.40;;;;;;6223325;23;20192;-70
2021/04/13 09:48:44;;;;;;;14.52;11.30;;;6.80;65.20;;;;;;6223628;23;20225;-70
2021/04/13 09:51:18;;;;;;;17.38;11.80;;;6.90;65.60;;;;;;6200257;23;20020;-70
2021/04/13 09:54:18;;;;;;;15.85;11.60;;;6.80;65.00;;;;;;6201746;23;20327;-70
2021/04/13 09:57:18;;;;;;;16.02;11.00;;;6.60;65.50;;;;;;6226673;23;20008;-70
2021/04/13 10:00:07;;;;;;;16.77;11.70;;;6.50;64.00;;;;;;6227316;23;20091;-70
2021/04/13 10:03:04;;;;;;;13.52;10.80;;;6.40;63.00;;;;;;6227588;23;20059;-71
2021/04/13 10:05:31;;;;;;;16.40;11.25;;;6.60;64.00;;;;;;6227691;23;20088;-70
2021/04/13 10:07:58;;;;;;;14.82;11.35;;;6.50;64.70;;;;;;6205834;23;20004;-70
2021/04/13 10:10:42;;;;;;;15.93;12.38;;;6.50;63.70;;;;;;6219402;23;20071;-69
2021/04/13 10:13:35;;;;;;;14.38;11.20;;;7.00;66.60;;;;;;6221021;23;20008;-70
2021/04/13 10:16:26;;;;;;;13.57;10.95;;;6.80;62.80;;;;;;6222869;23;20098;-70
2021/04/13 10:19:00;;;;;;;16.20;11.60;;;6.80;63.00;;;;;;6196812;23;20192;-69
2021/04/13 10:22:03;;;;;;;14.63;10.82;;;6.90;65.00;;;;;;6223948;23;20020;-69
2021/04/13 10:24:52;;;;;;;16.92;10.70;;;7.00;64.20;;;;;;6222656;23;20287;-70
2021/04/13 10:27:23;;;;;;;13.90;10.75;;;6.90;62.30;;;;;;6226012;23;20315;-69
2021/04/13 10:29:52;;;;;;;;;;;7.10;63.10;;;;;;6218884;23;20168;-69
2021/04/13 10:32:36;;;;;;;15.00;10.27;;;7.30;65.10;;;;;;6221693;23;19904;-69
2021/04/13 10:35:12;;;;;;;13.43;10.60;;;7.80;62.00;;;;;;6223385;23;20012;-70
2021/04/13 10:37:56;;;;;;;13.98;9.50;;;8.10;61.60;;;;;;6221783;23;20004;-70
2021/04/13 10:40:46;;;;;;;14.10;8.10;;;8.00;59.80;;;;;;6197787;23;20027;-69
2021/04/13 10:43:27;;;;;;;9.57;7.20;;;8.40;59.70;;;;;;6173671;23;20009;-70
2021/04/13 10:46:06;;;;;;;10.35;7.47;;;8.40;58.90;;;;;;6151553;23;20009;-70
2021/04/13 10:48:46;;;;;;;9.85;7.97;;;8.30;59.10;;;;;;6177227;23;20046;-69
2021/04/13 10:51:49;;;;;;;8.20;7.35;;;8.20;59.90;;;;;;6172702;23;20315;-70
2021/04/13 10:54:27;;;;;;;9.93;7.30;;;8.10;57.50;;;;;;6229220;23;20009;-70
2021/04/13 10:57:28;;;;;;;14.52;8.02;;;8.10;58.70;;;;;;6230836;23;20005;-70
2021/04/13 11:00:29;;;;;;;13.00;8.30;;;8.20;57.10;;;;;;6175234;23;20067;-70
2021/04/13 11:03:28;;;;;;;10.23;7.90;;;8.20;55.90;;;;;;6208289;23;20344;-69
2021/04/13 11:06:16;;;;;;;8.98;7.40;;;8.10;53.00;;;;;;6230445;23;20047;-69
2021/04/13 11:09:07;;;;;;;11.18;7.40;;;8.10;55.00;;;;;;6231060;23;20012;-69
2021/04/13 11:11:33;;;;;;;;;;;8.50;57.30;;;;;;6171742;23;20001;-70
2021/04/13 11:14:04;;;;;;;8.27;6.20;;;8.60;56.70;;;;;;6225264;23;19895;-69
2021/04/13 11:16:52;;;;;;;;;;;8.90;54.30;;;;;;6223220;23;20012;-70
2021/04/13 11:19:42;;;;;;;9.70;6.85;;;9.00;54.40;;;;;;6221512;23;20202;-69
2021/04/13 11:22:45;;;;;;;11.00;7.03;;;9.10;54.50;;;;;;6225497;23;20016;-69
2021/04/13 11:25:37;;;;;;;10.30;7.40;;;9.00;54.80;;;;;;6198642;23;20013;-70
2021/04/13 11:28:25;;;;;;;8.63;7.00;;;8.90;55.00;;;;;;6199324;23;20054;-70
2021/04/13 11:31:08;;;;;;;9.98;7.10;;;8.80;53.70;;;;;;6199780;23;20013;-69
2021/04/13 11:33:49;;;;;;;11.57;6.93;;;8.70;55.50;;;;;;6201233;23;20013;-69
2021/04/13 11:36:38;;;;;;;10.18;6.95;;;8.60;55.80;;;;;;6228954;23;20021;-70
2021/04/13 11:39:22;;;;;;;10.73;6.80;;;8.60;55.50;;;;;;6206868;23;20017;-70
2021/04/13 11:42:16;;;;;;;9.10;5.50;;;8.50;54.30;;;;;;6155425;23;20063;-70
2021/04/13 11:45:01;;;;;;;9.25;6.20;;;8.50;53.10;;;;;;6176970;23;20001;-70
2021/04/13 11:47:39;;;;;;;6.43;5.28;;;8.60;53.90;;;;;;6145111;23;20314;-70
2021/04/13 11:50:29;;;;;;;9.23;5.30;;;8.60;53.60;;;;;;6205916;23;20367;-70
2021/04/13 11:53:05;;;;;;;7.97;5.50;;;8.60;51.70;;;;;;6195134;23;20027;-70
2021/04/13 11:55:31;;;;;;;8.73;5.80;;;8.70;53.50;;;;;;6171992;23;20017;-69
2021/04/13 11:58:04;;;;;;;10.35;5.70;;;8.90;52.10;;;;;;6194217;23;20044;-69
2021/04/13 12:00:30;;;;;;;8.75;4.97;;;8.90;49.70;;;;;;6174068;23;20024;-70
2021/04/13 12:03:01;;;;;;;6.40;5.38;;;9.30;51.30;;;;;;6202242;23;20008;-70
2021/04/13 12:05:51;;;;;;;7.35;5.32;;;9.60;50.40;;;;;;6154938;23;20137;-70
2021/04/13 12:08:39;;;;;;;7.47;5.88;;;9.40;49.60;;;;;;6206754;23;20064;-70
2021/04/13 12:11:06;;;;;;;12.60;5.85;;;9.70;49.30;;;;;;6195500;23;20009;-70
2021/04/13 12:13:42;;;;;;;10.48;5.13;;;9.80;50.20;;;;;;6195190;23;20228;-71
2021/04/13 12:16:22;;;;;;;6.03;4.70;;;9.90;49.80;;;;;;6196179;23;20300;-71
2021/04/13 12:19:12;;;;;;;6.68;4.15;;;10.00;46.20;;;;;;6171528;23;20025;-71
2021/04/13 12:21:45;;;;;;;8.82;4.70;;;10.10;47.70;;;;;;6216944;23;20024;-70
2021/04/13 12:24:45;;;;;;;6.45;4.43;;;10.00;47.10;;;;;;6200568;23;20013;-71
2021/04/13 12:27:25;;;;;;;7.97;5.10;;;10.10;47.30;;;;;;6205805;23;20009;-71
2021/04/13 12:30:11;;;;;;;6.63;4.70;;;10.20;47.90;;;;;;6228008;23;20023;-70
2021/04/13 12:32:41;;;;;;;6.88;5.20;;;10.10;47.00;;;;;;6162062;23;20007;-71
2021/04/13 12:35:07;;;;;;;5.95;4.75;;;10.20;48.70;;;;;;6206289;23;20307;-71
2021/04/13 12:37:42;;;;;;;6.80;4.90;;;10.20;47.90;;;;;;6143787;23;20016;-71
2021/04/13 12:40:25;;;;;;;8.10;4.88;;;9.90;48.40;;;;;;6196609;23;20027;-70
2021/04/13 12:43:06;;;;;;;7.57;5.13;;;9.80;48.20;;;;;;6148656;23;20439;-70
2021/04/13 12:45:49;;;;;;;6.67;4.67;;;9.40;49.60;;;;;;6225038;23;20193;-71
2021/04/13 12:48:17;;;;;;;6.63;4.60;;;9.20;51.30;;;;;;6151977;23;20259;-71
2021/04/13 12:50:50;;;;;;;6.30;4.88;;;9.00;50.40;;;;;;6176573;23;20077;-71
2021/04/13 12:53:18;;;;;;;8.50;5.05;;;9.00;51.60;;;;;;6182003;23;20004;-70
2021/04/13 12:55:44;;;;;;;9.10;5.20;;;8.90;51.90;;;;;;6145475;23;20402;-70
2021/04/13 12:58:14;;;;;;;8.43;5.65;;;8.90;52.60;;;;;;6171690;23;20008;-70
2021/04/13 13:00:44;;;;;;;7.17;5.23;;;9.00;52.10;;;;;;6173691;23;20355;-70
2021/04/13 13:03:31;;;;;;;8.95;4.80;;;8.90;52.20;;;;;;6151480;23;20023;-70
2021/04/13 13:05:56;;;;;;;6.68;4.63;;;9.00;52.00;;;;;;6195016;23;20021;-70
2021/04/13 13:08:25;;;;;;;8.27;3.75;;;9.10;51.50;;;;;;6178671;23;20238;-70
2021/04/13 13:10:52;;;;;;;6.95;3.53;;;9.20;49.40;;;;;;6205349;23;20315;-70
2021/04/13 13:13:28;;;;;;;7.13;3.50;;;9.30;47.30;;;;;;6170304;23;20071;-70
2021/04/13 13:15:55;;;;;;;7.07;3.40;;;9.30;46.70;;;;;;6172901;23;20012;-70
2021/04/13 13:18:35;;;;;;;6.45;3.50;;;9.50;47.50;;;;;;6199434;23;20056;-70
2021/04/13 13:21:09;;;;;;;4.20;3.30;;;9.50;45.00;;;;;;6194802;23;20021;-71
2021/04/13 13:23:36;;;;;;;4.43;3.33;;;9.50;44.00;;;;;;6201165;23;20004;-70
2021/04/13 13:26:10;;;;;;;5.50;3.63;;;9.60;44.20;;;;;;6196113;23;20035;-71
2021/04/13 13:28:43;;;;;;;4.90;3.78;;;9.80;44.60;;;;;;6194503;23;20023;-71
2021/04/13 13:31:13;;;;;;;6.18;3.92;;;9.90;43.70;;;;;;6222310;23;20076;-71
2021/04/13 13:33:39;;;;;;;6.45;3.97;;;9.90;44.10;;;;;;6197623;23;20180;-71
2021/04/13 13:36:05;;;;;;;5.28;4.40;;;9.90;42.50;;;;;;6175736;23;20016;-70
2021/04/13 13:38:31;;;;;;;11.13;4.68;;;9.70;43.20;;;;;;6178785;23;20008;-71